createdAt,value
2023-08-03T00:00:17.849Z,94367.91
2023-08-03T00:01:19.540Z,94367.34
2023-08-03T00:02:22.203Z,94361.06
2023-08-03T00:03:26.581Z,94359.81
2023-08-03T00:04:28.504Z,94366.44
2023-08-03T00:05:32.728Z,94360.63
2023-08-03T00:06:34.452Z,94352.28
2023-08-03T00:07:36.212Z,94355.91
2023-08-03T00:08:37.789Z,94368.31
2023-08-03T00:09:41.148Z,94356.84
2023-08-03T00:10:42.859Z,94357.47
2023-08-03T00:11:44.854Z,94357.63
2023-08-03T00:12:49.758Z,94359.69
2023-08-03T00:13:51.451Z,94361.25
2023-08-03T00:14:53.893Z,94361.41
2023-08-03T00:15:56.584Z,94339.88
2023-08-03T00:16:58.290Z,94364.53
2023-08-03T00:17:59.992Z,94363.31
2023-08-03T00:19:01.655Z,94356.69
2023-08-03T00:20:05.691Z,94350.25
2023-08-03T00:21:07.509Z,94353.41
2023-08-03T00:22:09.494Z,94356.38
2023-08-03T00:23:11.138Z,94351.53
2023-08-03T00:24:12.727Z,94345.72
2023-08-03T00:25:14.694Z,94338.47
2023-08-03T00:26:16.411Z,94356.69
2023-08-03T00:27:18.041Z,94336.56
2023-08-03T00:28:22.362Z,94348.66
2023-08-03T00:29:24.140Z,94350.41
2023-08-03T00:30:25.746Z,94357.03
2023-08-03T00:31:29.549Z,94345.38
2023-08-03T00:32:33.525Z,94346.47
2023-08-03T00:33:35.362Z,94342.53
2023-08-03T00:34:39.205Z,94348.03
2023-08-03T00:35:43.411Z,94359.38
2023-08-03T00:36:45.046Z,94367.88
2023-08-03T00:37:46.698Z,94352.00
2023-08-03T00:38:49.734Z,94368.97
2023-08-03T00:39:54.210Z,94385.63
2023-08-03T00:40:55.891Z,94368.03
2023-08-03T00:41:59.289Z,94383.75
2023-08-03T00:43:05.310Z,94411.75
2023-08-03T00:44:07.001Z,94384.84
2023-08-03T00:45:10.490Z,94386.56
2023-08-03T00:46:12.281Z,94376.66
2023-08-03T00:47:16.522Z,94404.19
2023-08-03T00:48:20.331Z,94381.25
2023-08-03T00:49:28.616Z,94393.66
2023-08-03T00:50:32.782Z,94384.84
2023-08-03T00:51:34.834Z,94385.78
2023-08-03T00:52:39.708Z,94392.41
2023-08-03T00:53:47.018Z,94389.56
2023-08-03T00:54:50.477Z,94386.75
2023-08-03T00:55:52.074Z,94401.50
2023-08-03T00:56:54.697Z,94399.16
2023-08-03T00:57:56.402Z,94390.53
2023-08-03T00:58:58.012Z,94365.66
2023-08-03T00:59:59.973Z,94382.97
2023-08-03T01:01:04.488Z,94407.66
2023-08-03T01:02:07.040Z,94392.69
2023-08-03T01:03:08.795Z,94372.44
2023-08-03T01:04:10.967Z,94386.88
2023-08-03T01:05:12.757Z,94395.69
2023-08-03T01:06:14.552Z,94396.00
2023-08-03T01:07:18.724Z,94417.72
2023-08-03T01:08:20.516Z,94383.56
2023-08-03T01:09:22.066Z,94397.75
2023-08-03T01:10:23.851Z,94403.41
2023-08-03T01:11:27.946Z,94394.13
2023-08-03T01:12:32.723Z,94406.06
2023-08-03T01:13:34.542Z,94388.63
2023-08-03T01:14:36.348Z,94416.78
2023-08-03T01:15:38.067Z,94399.94
2023-08-03T01:16:45.251Z,94398.06
2023-08-03T01:17:49.452Z,94390.50
2023-08-03T01:18:52.146Z,94401.69
2023-08-03T01:19:53.910Z,94404.97
2023-08-03T01:20:57.046Z,94396.03
2023-08-03T01:22:03.460Z,94408.13
2023-08-03T01:23:06.219Z,94408.91
2023-08-03T01:24:08.516Z,94398.69
2023-08-03T01:25:11.306Z,94406.22
2023-08-03T01:26:15.226Z,94401.06
2023-08-03T01:27:16.886Z,94402.31
2023-08-03T01:28:18.493Z,94404.03
2023-08-03T01:29:20.057Z,94406.53
2023-08-03T01:30:24.560Z,94406.22
2023-08-03T01:31:26.261Z,94414.41
2023-08-03T01:32:27.955Z,94412.50
2023-08-03T01:33:29.739Z,94412.84
2023-08-03T01:34:31.506Z,94398.81
2023-08-03T01:35:33.409Z,94409.19
2023-08-03T01:36:35.392Z,94408.25
2023-08-03T01:37:37.228Z,94418.78
2023-08-03T01:38:41.303Z,94402.44
2023-08-03T01:39:46.400Z,94402.28
2023-08-03T01:40:48.132Z,94410.28
2023-08-03T01:41:49.971Z,94403.84
2023-08-03T01:42:53.745Z,94407.78
2023-08-03T01:44:22.585Z,94415.00
2023-08-03T01:45:24.548Z,94397.88
2023-08-03T01:46:26.191Z,94417.22
2023-08-03T01:47:27.904Z,94415.34
2023-08-03T01:48:29.658Z,94410.75
2023-08-03T01:49:32.655Z,94423.50
2023-08-03T01:50:35.527Z,94415.81
2023-08-03T01:51:41.598Z,94420.22
2023-08-03T01:52:43.602Z,94421.13
2023-08-03T01:53:47.622Z,94417.34
2023-08-03T01:54:49.256Z,94422.22
2023-08-03T01:55:51.153Z,94432.13
2023-08-03T01:56:56.295Z,94422.41
2023-08-03T01:57:58.201Z,94432.63
2023-08-03T01:58:59.826Z,94432.66
2023-08-03T02:00:01.551Z,94435.25
2023-08-03T02:01:03.890Z,94430.84
2023-08-03T02:02:05.979Z,94433.69
2023-08-03T02:03:10.215Z,94432.91
2023-08-03T02:04:15.561Z,94432.69
2023-08-03T02:05:18.568Z,94429.06
2023-08-03T02:06:21.506Z,94426.84
2023-08-03T02:07:54.330Z,94436.91
2023-08-03T02:08:58.599Z,94436.41
2023-08-03T02:10:05.376Z,94445.63
2023-08-03T02:11:07.102Z,94435.13
2023-08-03T02:12:08.941Z,94445.53
2023-08-03T02:13:10.700Z,94452.13
2023-08-03T02:14:14.899Z,94443.63
2023-08-03T02:15:17.407Z,94443.19
2023-08-03T02:16:25.338Z,94445.66
2023-08-03T02:17:30.218Z,94437.19
2023-08-03T02:18:34.169Z,94458.41
2023-08-03T02:19:39.024Z,94460.13
2023-08-03T02:20:42.858Z,94445.69
2023-08-03T02:21:44.719Z,94451.50
2023-08-03T02:22:46.951Z,94444.22
2023-08-03T02:23:48.620Z,94462.88
2023-08-03T02:24:50.206Z,94474.50
2023-08-03T02:25:52.410Z,94454.13
2023-08-03T02:26:54.043Z,94451.91
2023-08-03T02:27:55.742Z,94446.78
2023-08-03T02:28:59.869Z,94464.84
2023-08-03T02:30:02.483Z,94465.13
2023-08-03T02:31:08.413Z,94476.00
2023-08-03T02:32:20.790Z,94483.69
2023-08-03T02:33:26.678Z,94473.81
2023-08-03T02:34:28.396Z,94469.88
2023-08-03T02:35:35.487Z,94483.19
2023-08-03T02:36:37.258Z,94489.84
2023-08-03T02:37:43.634Z,94516.31
2023-08-03T02:38:51.489Z,94492.38
2023-08-03T02:39:54.030Z,94482.03
2023-08-03T02:41:02.858Z,94502.72
2023-08-03T02:42:07.775Z,94489.38
2023-08-03T02:43:13.408Z,94488.13
2023-08-03T02:44:20.994Z,94496.97
2023-08-03T02:45:27.382Z,94493.88
2023-08-03T02:46:31.651Z,94497.72
2023-08-03T02:47:34.027Z,94504.41
2023-08-03T02:48:40.622Z,94512.41
2023-08-03T02:49:42.294Z,94507.34
2023-08-03T02:50:44.130Z,94500.91
2023-08-03T02:51:48.517Z,94504.56
2023-08-03T02:52:52.772Z,94509.28
2023-08-03T02:53:54.782Z,94522.34
2023-08-03T02:54:59.247Z,94512.78
2023-08-03T02:56:01.114Z,94521.75
2023-08-03T02:57:07.691Z,94520.66
2023-08-03T02:58:09.722Z,94527.22
2023-08-03T02:59:12.118Z,94525.63
2023-08-03T03:00:18.812Z,94523.31
2023-08-03T03:01:23.649Z,94522.22
2023-08-03T03:02:28.692Z,94538.97
2023-08-03T03:03:30.869Z,94518.16
2023-08-03T03:04:32.732Z,94524.53
2023-08-03T03:05:34.424Z,94535.47
2023-08-03T03:06:36.148Z,94530.16
2023-08-03T03:07:40.237Z,94529.31
2023-08-03T03:08:42.062Z,94525.09
2023-08-03T03:09:43.707Z,94522.19
2023-08-03T03:10:45.438Z,94515.56
2023-08-03T03:11:47.138Z,94521.75
2023-08-03T03:12:49.935Z,94518.41
2023-08-03T03:13:51.690Z,94539.94
2023-08-03T03:14:56.482Z,94529.16
2023-08-03T03:15:58.281Z,94536.56
2023-08-03T03:17:03.301Z,94514.84
2023-08-03T03:18:05.149Z,94523.34
2023-08-03T03:19:06.715Z,94524.53
2023-08-03T03:20:08.948Z,94529.97
2023-08-03T03:21:10.750Z,94530.06
2023-08-03T03:22:12.602Z,94542.59
2023-08-03T03:23:18.128Z,94535.81
2023-08-03T03:24:22.015Z,94533.53
2023-08-03T03:25:23.710Z,94529.94
2023-08-03T03:26:27.844Z,94529.25
2023-08-03T03:27:32.174Z,94567.72
2023-08-03T03:28:33.836Z,94542.91
2023-08-03T03:29:35.516Z,94545.19
2023-08-03T03:30:37.150Z,94534.31
2023-08-03T03:31:38.756Z,94558.34
2023-08-03T03:32:40.655Z,94541.16
2023-08-03T03:33:42.369Z,94548.25
2023-08-03T03:34:49.967Z,94549.63
2023-08-03T03:35:53.979Z,94537.88
2023-08-03T03:36:55.655Z,94548.47
2023-08-03T03:37:59.690Z,94553.41
2023-08-03T03:39:03.855Z,94564.59
2023-08-03T03:40:06.840Z,94553.13
2023-08-03T03:41:13.953Z,94567.28
2023-08-03T03:42:18.766Z,94554.03
2023-08-03T03:43:20.317Z,94571.16
2023-08-03T03:44:27.727Z,94564.41
2023-08-03T03:45:30.606Z,94563.31
2023-08-03T03:46:32.384Z,94557.97
2023-08-03T03:47:34.293Z,94562.66
2023-08-03T03:48:37.253Z,94569.13
2023-08-03T03:49:40.109Z,94563.31
2023-08-03T03:50:41.840Z,94569.34
2023-08-03T03:51:43.972Z,94587.44
2023-08-03T03:52:46.364Z,94583.59
2023-08-03T03:53:51.776Z,94576.28
2023-08-03T03:54:55.966Z,94572.03
2023-08-03T03:55:58.777Z,94575.78
2023-08-03T03:57:01.781Z,94565.72
2023-08-03T03:58:07.821Z,94579.44
2023-08-03T03:59:10.480Z,94579.53
2023-08-03T04:00:14.049Z,94571.06
2023-08-03T04:01:18.443Z,94571.06
2023-08-03T04:02:20.944Z,94570.75
2023-08-03T04:03:25.236Z,94579.16
2023-08-03T04:04:29.728Z,94571.44
2023-08-03T04:05:32.992Z,94592.78
2023-08-03T04:06:37.001Z,94578.38
2023-08-03T04:07:42.003Z,94596.75
2023-08-03T04:08:43.579Z,94587.56
2023-08-03T04:09:45.166Z,94573.72
2023-08-03T04:11:48.537Z,94570.06
2023-08-03T04:12:50.876Z,94553.59
2023-08-03T04:13:58.286Z,94570.69
2023-08-03T04:15:02.123Z,94572.75
2023-08-03T04:16:04.059Z,94565.03
2023-08-03T04:17:07.992Z,94573.22
2023-08-03T04:19:13.106Z,94577.00
2023-08-03T04:20:14.826Z,94568.13
2023-08-03T04:21:20.502Z,94566.44
2023-08-03T04:22:22.122Z,94569.22
2023-08-03T04:23:23.712Z,94580.38
2023-08-03T04:25:29.387Z,94594.38
2023-08-03T04:26:36.003Z,94580.16
2023-08-03T04:27:39.678Z,94575.59
2023-08-03T04:28:43.975Z,94577.38
2023-08-03T04:29:46.622Z,94586.66
2023-08-03T04:30:48.362Z,94586.47
2023-08-03T04:31:49.908Z,94566.66
2023-08-03T04:32:52.095Z,94572.75
2023-08-03T04:33:54.367Z,94571.53
2023-08-03T04:34:58.245Z,94565.31
2023-08-03T04:36:01.209Z,94567.91
2023-08-03T04:37:07.742Z,94575.19
2023-08-03T04:38:10.267Z,94572.88
2023-08-03T04:39:17.190Z,94578.44
2023-08-03T04:40:19.607Z,94575.75
2023-08-03T04:41:22.681Z,94581.25
2023-08-03T04:42:26.025Z,94583.88
2023-08-03T04:43:28.554Z,94592.97
2023-08-03T04:44:30.176Z,94578.72
2023-08-03T04:45:31.928Z,94585.75
2023-08-03T04:46:36.651Z,94576.66
2023-08-03T04:47:39.331Z,94584.66
2023-08-03T04:48:41.142Z,94593.91
2023-08-03T04:49:44.041Z,94598.47
2023-08-03T04:50:47.501Z,94591.34
2023-08-03T04:51:51.320Z,94597.88
2023-08-03T04:52:55.666Z,94597.19
2023-08-03T04:53:58.220Z,94607.75
2023-08-03T04:55:02.509Z,94596.97
2023-08-03T04:56:04.443Z,94603.16
2023-08-03T04:57:06.241Z,94617.59
2023-08-03T04:58:12.578Z,94602.56
2023-08-03T04:59:17.415Z,94611.72
2023-08-03T05:00:22.936Z,94601.34
2023-08-03T05:01:27.207Z,94609.97
2023-08-03T05:02:30.287Z,94614.38
2023-08-03T05:03:31.875Z,94609.34
2023-08-03T05:04:33.638Z,94606.84
2023-08-03T05:05:39.096Z,94619.59
2023-08-03T05:06:41.917Z,94612.50
2023-08-03T05:07:43.684Z,94618.22
2023-08-03T05:08:45.191Z,94621.13
2023-08-03T05:09:46.855Z,94621.97
2023-08-03T05:10:48.492Z,94618.50
2023-08-03T05:11:50.305Z,94620.63
2023-08-03T05:12:54.828Z,94623.91
2023-08-03T05:13:56.610Z,94631.53
2023-08-03T05:14:58.874Z,94624.88
2023-08-03T05:16:00.710Z,94628.91
2023-08-03T05:17:02.523Z,94618.50
2023-08-03T05:18:07.545Z,94617.13
2023-08-03T05:19:09.354Z,94626.59
2023-08-03T05:20:11.393Z,94622.22
2023-08-03T05:21:15.726Z,94618.09
2023-08-03T05:22:17.445Z,94611.25
2023-08-03T05:23:20.642Z,94627.56
2023-08-03T05:24:22.312Z,94617.38
2023-08-03T05:25:23.833Z,94619.88
2023-08-03T05:26:26.192Z,94611.59
2023-08-03T05:27:27.948Z,94631.88
2023-08-03T05:28:29.501Z,94609.34
2023-08-03T05:29:31.475Z,94621.97
2023-08-03T05:30:34.413Z,94623.28
2023-08-03T05:31:38.658Z,94623.28
2023-08-03T05:32:40.556Z,94621.13
2023-08-03T05:33:42.628Z,94617.75
2023-08-03T05:34:44.367Z,94611.44
2023-08-03T05:35:51.051Z,94622.47
2023-08-03T05:36:53.509Z,94626.72
2023-08-03T05:37:57.434Z,94613.84
2023-08-03T05:38:59.203Z,94617.00
2023-08-03T05:40:03.902Z,94613.38
2023-08-03T05:41:13.190Z,94622.81
2023-08-03T05:42:15.720Z,94625.50
2023-08-03T05:43:17.461Z,94615.75
2023-08-03T05:44:19.042Z,94620.50
2023-08-03T05:45:35.893Z,94625.53
2023-08-03T05:46:39.924Z,94625.56
2023-08-03T05:47:41.695Z,94613.31
2023-08-03T05:48:43.638Z,94618.97
2023-08-03T05:49:45.403Z,94619.13
2023-08-03T05:50:47.978Z,94623.22
2023-08-03T05:51:51.818Z,94617.91
2023-08-03T05:52:55.649Z,94623.72
2023-08-03T05:53:57.910Z,94621.66
2023-08-03T05:55:01.952Z,94620.28
2023-08-03T05:56:12.298Z,94622.59
2023-08-03T05:57:14.628Z,94624.81
2023-08-03T05:58:18.311Z,94632.69
2023-08-03T05:59:22.657Z,94620.13
2023-08-03T06:00:25.836Z,94633.97
2023-08-03T06:01:27.599Z,94630.06
2023-08-03T06:02:35.397Z,94623.16
2023-08-03T06:03:42.444Z,94637.16
2023-08-03T06:04:44.966Z,94634.94
2023-08-03T06:05:50.505Z,94624.88
2023-08-03T06:06:52.336Z,94633.75
2023-08-03T06:07:55.286Z,94631.22
2023-08-03T06:08:58.866Z,94630.91
2023-08-03T06:10:00.557Z,94634.69
2023-08-03T06:11:04.715Z,94642.59
2023-08-03T06:12:15.286Z,94638.22
2023-08-03T06:13:19.259Z,94648.72
2023-08-03T06:14:23.616Z,94629.22
2023-08-03T06:15:25.199Z,94644.34
2023-08-03T06:16:27.149Z,94639.47
2023-08-03T06:17:31.238Z,94641.50
2023-08-03T06:18:35.154Z,94646.41
2023-08-03T06:19:39.136Z,94643.25
2023-08-03T06:20:44.776Z,94652.25
2023-08-03T06:21:46.678Z,94652.44
2023-08-03T06:22:48.570Z,94668.63
2023-08-03T06:23:52.940Z,94656.34
2023-08-03T06:24:57.052Z,94663.13
2023-08-03T06:25:59.662Z,94659.81
2023-08-03T06:27:01.524Z,94662.22
2023-08-03T06:28:04.973Z,94658.56
2023-08-03T06:29:10.334Z,94660.19
2023-08-03T06:30:13.854Z,94660.81
2023-08-03T06:31:17.988Z,94658.31
2023-08-03T06:32:26.684Z,94655.19
2023-08-03T06:33:28.452Z,94677.41
2023-08-03T06:34:30.195Z,94656.44
2023-08-03T06:35:39.486Z,94652.66
2023-08-03T06:36:43.974Z,94670.91
2023-08-03T06:37:45.639Z,94666.50
2023-08-03T06:38:47.721Z,94660.19
2023-08-03T06:39:51.642Z,94661.44
2023-08-03T06:40:53.372Z,94657.97
2023-08-03T06:41:55.271Z,94655.56
2023-08-03T06:42:58.003Z,94666.16
2023-08-03T06:44:01.230Z,94659.66
2023-08-03T06:45:03.073Z,94671.13
2023-08-03T06:46:06.133Z,94671.28
2023-08-03T06:47:07.877Z,94666.03
2023-08-03T06:48:09.915Z,94661.47
2023-08-03T06:49:13.990Z,94670.47
2023-08-03T06:50:15.795Z,94672.34
2023-08-03T06:51:21.438Z,94672.75
2023-08-03T06:52:23.237Z,94662.03
2023-08-03T06:53:27.202Z,94668.03
2023-08-03T06:54:29.822Z,94666.09
2023-08-03T06:55:31.982Z,94670.03
2023-08-03T06:56:37.842Z,94667.69
2023-08-03T06:57:42.873Z,94659.16
2023-08-03T06:58:47.227Z,94674.25
2023-08-03T06:59:48.750Z,94668.91
2023-08-03T07:00:50.990Z,94669.06
2023-08-03T07:01:55.109Z,94663.69
2023-08-03T07:02:59.106Z,94661.63
2023-08-03T07:04:01.203Z,94669.06
2023-08-03T07:05:04.089Z,94666.53
2023-08-03T07:06:08.444Z,94660.06
2023-08-03T07:07:10.198Z,94642.72
2023-08-03T07:08:11.966Z,94657.59
2023-08-03T07:09:13.665Z,94654.75
2023-08-03T07:10:17.846Z,94658.66
2023-08-03T07:11:19.537Z,94637.84
2023-08-03T07:12:23.702Z,94645.13
2023-08-03T07:13:27.731Z,94647.19
2023-08-03T07:14:29.460Z,94640.69
2023-08-03T07:15:35.367Z,94634.75
2023-08-03T07:16:39.570Z,94638.19
2023-08-03T07:17:41.525Z,94646.41
2023-08-03T07:18:43.340Z,94643.09
2023-08-03T07:19:45.287Z,94644.03
2023-08-03T07:20:46.969Z,94647.50
2023-08-03T07:21:48.565Z,94650.03
2023-08-03T07:22:50.293Z,94649.84
2023-08-03T07:23:52.134Z,94650.97
2023-08-03T07:24:57.920Z,94649.91
2023-08-03T07:26:02.373Z,94652.25
2023-08-03T07:27:04.453Z,94645.78
2023-08-03T07:28:06.163Z,94639.19
2023-08-03T07:29:10.229Z,94638.38
2023-08-03T07:30:12.651Z,94643.09
2023-08-03T07:31:17.469Z,94642.31
2023-08-03T07:32:19.111Z,94643.56
2023-08-03T07:33:20.657Z,94636.81
2023-08-03T07:34:23.057Z,94644.03
2023-08-03T07:35:24.676Z,94636.78
2023-08-03T07:36:26.386Z,94632.72
2023-08-03T07:37:30.815Z,94629.69
2023-08-03T07:38:32.506Z,94635.34
2023-08-03T07:39:34.628Z,94634.59
2023-08-03T07:40:39.121Z,94628.88
2023-08-03T07:41:43.266Z,94628.56
2023-08-03T07:42:45.194Z,94633.28
2023-08-03T07:43:48.100Z,94634.31
2023-08-03T07:44:55.495Z,94630.22
2023-08-03T07:45:57.201Z,94635.06
2023-08-03T07:47:01.209Z,94636.31
2023-08-03T07:48:02.721Z,94633.34
2023-08-03T07:49:06.938Z,94627.47
2023-08-03T07:50:08.824Z,94633.47
2023-08-03T07:51:12.693Z,94629.97
2023-08-03T07:52:14.592Z,94626.81
2023-08-03T07:53:16.217Z,94629.97
2023-08-03T07:54:17.916Z,94644.94
2023-08-03T07:55:19.783Z,94643.00
2023-08-03T07:56:22.968Z,94624.56
2023-08-03T07:57:24.626Z,94634.34
2023-08-03T07:58:26.311Z,94637.47
2023-08-03T07:59:30.142Z,94627.06
2023-08-03T08:00:31.853Z,94634.47
2023-08-03T08:01:33.970Z,94633.06
2023-08-03T08:02:38.415Z,94639.09
2023-08-03T08:03:41.293Z,94629.75
2023-08-03T08:04:50.524Z,94646.94
2023-08-03T08:06:04.103Z,94630.31
2023-08-03T08:07:06.955Z,94633.47
2023-08-03T08:08:10.914Z,94632.69
2023-08-03T08:09:12.495Z,94630.06
2023-08-03T08:10:14.321Z,94634.28
2023-08-03T08:11:18.264Z,94630.75
2023-08-03T08:12:20.013Z,94645.84
2023-08-03T08:13:21.603Z,94645.03
2023-08-03T08:14:25.710Z,94629.28
2023-08-03T08:15:29.130Z,94641.69
2023-08-03T08:16:31.418Z,94634.56
2023-08-03T08:17:33.138Z,94633.91
2023-08-03T08:18:35.499Z,94644.16
2023-08-03T08:19:39.463Z,94630.72
2023-08-03T08:20:41.205Z,94632.91
2023-08-03T08:21:43.162Z,94629.75
2023-08-03T08:22:45.254Z,94622.50
2023-08-03T08:23:47.107Z,94625.78
2023-08-03T08:24:51.142Z,94620.88
2023-08-03T08:25:52.915Z,94618.63
2023-08-03T08:26:55.238Z,94620.94
2023-08-03T08:27:57.133Z,94633.59
2023-08-03T08:29:05.053Z,94624.41
2023-08-03T08:30:09.511Z,94618.41
2023-08-03T08:31:11.603Z,94622.50
2023-08-03T08:32:13.483Z,94625.06
2023-08-03T08:33:16.870Z,94622.84
2023-08-03T08:34:18.686Z,94619.69
2023-08-03T08:35:20.342Z,94619.09
2023-08-03T08:36:24.116Z,94616.03
2023-08-03T08:37:26.040Z,94622.81
2023-08-03T08:38:27.814Z,94632.31
2023-08-03T08:39:30.927Z,94624.28
2023-08-03T08:40:36.895Z,94621.28
2023-08-03T08:41:42.474Z,94622.50
2023-08-03T08:42:55.390Z,94622.66
2023-08-03T08:43:59.372Z,94621.03
2023-08-03T08:45:01.032Z,94627.81
2023-08-03T08:46:02.673Z,94620.28
2023-08-03T08:47:05.709Z,94633.06
2023-08-03T08:50:22.351Z,94638.31
2023-08-03T08:52:31.012Z,94641.22
2023-08-03T08:54:17.913Z,94643.41
2023-08-03T09:00:03.699Z,94647.63
2023-08-03T09:01:05.958Z,94629.09
2023-08-03T09:02:10.469Z,94630.56
2023-08-03T09:03:13.517Z,94645.88
2023-08-03T09:06:46.443Z,94640.56
2023-08-03T09:08:08.670Z,94632.13
2023-08-03T09:09:10.394Z,94638.53
2023-08-03T09:10:13.306Z,94636.31
2023-08-03T09:11:14.984Z,94616.06
2023-08-03T09:12:27.084Z,94627.28
2023-08-03T09:13:33.097Z,94626.47
2023-08-03T09:14:50.168Z,94642.91
2023-08-03T09:15:52.118Z,94650.47
2023-08-03T09:16:56.343Z,94645.88
2023-08-03T09:18:05.766Z,94641.84
2023-08-03T09:19:09.635Z,94647.06
2023-08-03T09:25:09.338Z,94640.97
2023-08-03T09:26:12.752Z,94642.22
2023-08-03T09:27:18.031Z,94639.84
2023-08-03T09:29:39.236Z,94642.06
2023-08-03T09:32:06.096Z,94631.59
2023-08-03T09:34:43.241Z,94636.84
2023-08-03T09:37:55.746Z,94628.47
2023-08-03T09:40:21.128Z,94638.81
2023-08-03T09:42:42.571Z,94633.41
2023-08-03T09:43:48.835Z,94618.06
2023-08-03T09:44:51.846Z,94620.88
2023-08-03T09:45:56.925Z,94627.94
2023-08-03T09:47:00.931Z,94619.50
2023-08-03T09:48:03.453Z,94613.84
2023-08-03T09:50:11.156Z,94616.03
2023-08-03T09:51:13.755Z,94633.19
2023-08-03T09:52:49.411Z,94609.34
2023-08-03T09:53:45.475Z,94621.44
2023-08-03T09:56:04.902Z,94629.94
2023-08-03T09:58:17.634Z,94618.00
2023-08-03T09:59:27.205Z,94615.59
2023-08-03T10:00:30.085Z,94608.16
2023-08-03T10:01:33.779Z,94619.56
2023-08-03T10:02:45.233Z,94626.88
2023-08-03T10:03:51.673Z,94614.56
2023-08-03T10:05:01.873Z,94617.03
2023-08-03T10:06:06.059Z,94629.78
2023-08-03T10:07:10.492Z,94618.25
2023-08-03T10:08:36.053Z,94617.59
2023-08-03T10:09:45.663Z,94611.47
2023-08-03T10:10:50.136Z,94607.44
2023-08-03T10:11:55.217Z,94604.75
2023-08-03T10:13:03.369Z,94605.16
2023-08-03T10:14:06.255Z,94612.38
2023-08-03T10:15:10.404Z,94614.16
2023-08-03T10:16:12.650Z,94607.91
2023-08-03T10:17:15.334Z,94614.63
2023-08-03T10:18:20.371Z,94618.00
2023-08-03T10:19:26.096Z,94615.31
2023-08-03T10:20:30.417Z,94619.97
2023-08-03T10:21:35.744Z,94624.56
2023-08-03T10:22:37.479Z,94615.59
2023-08-03T10:23:46.543Z,94617.16
2023-08-03T10:25:20.539Z,94627.16
2023-08-03T10:26:25.543Z,94640.75
2023-08-03T10:27:27.317Z,94624.56
2023-08-03T10:28:49.390Z,94641.38
2023-08-03T10:29:51.036Z,94633.97
2023-08-03T10:31:06.119Z,94616.75
2023-08-03T10:32:08.137Z,94624.28
2023-08-03T10:33:09.824Z,94609.25
2023-08-03T10:34:13.517Z,94620.13
2023-08-03T10:35:39.231Z,94630.94
2023-08-03T10:36:47.880Z,94624.03
2023-08-03T10:37:51.187Z,94619.56
2023-08-03T10:38:58.757Z,94628.28
2023-08-03T10:40:01.975Z,94622.25
2023-08-03T10:41:22.934Z,94636.16
2023-08-03T10:42:36.203Z,94624.25
2023-08-03T10:43:38.597Z,94622.91
2023-08-03T10:44:42.680Z,94629.28
2023-08-03T10:45:44.647Z,94625.25
2023-08-03T10:46:49.460Z,94639.97
2023-08-03T10:47:51.710Z,94637.25
2023-08-03T10:48:53.582Z,94639.06
2023-08-03T10:49:57.532Z,94642.19
2023-08-03T10:51:04.124Z,94631.66
2023-08-03T10:52:18.804Z,94638.63
2023-08-03T10:53:20.703Z,94644.56
2023-08-03T10:54:29.350Z,94641.84
2023-08-03T10:55:30.982Z,94635.03
2023-08-03T10:56:32.676Z,94622.56
2023-08-03T10:57:34.313Z,94632.91
2023-08-03T10:58:45.878Z,94627.69
2023-08-03T10:59:53.803Z,94623.50
2023-08-03T11:00:55.541Z,94639.34
2023-08-03T11:01:57.255Z,94630.28
2023-08-03T11:03:01.832Z,94634.25
2023-08-03T11:04:03.797Z,94632.91
2023-08-03T11:05:09.008Z,94639.97
2023-08-03T11:06:16.801Z,94637.84
2023-08-03T11:07:23.172Z,94619.19
2023-08-03T11:08:25.036Z,94630.88
2023-08-03T11:09:26.953Z,94619.03
2023-08-03T11:10:28.730Z,94619.81
2023-08-03T11:11:34.052Z,94624.41
2023-08-03T11:12:36.345Z,94624.81
2023-08-03T11:13:41.372Z,94634.91
2023-08-03T11:14:44.661Z,94634.94
2023-08-03T11:15:46.425Z,94623.53
2023-08-03T11:16:49.550Z,94632.25
2023-08-03T11:17:51.884Z,94627.00
2023-08-03T11:18:54.190Z,94627.00
2023-08-03T11:19:56.897Z,94631.84
2023-08-03T11:20:58.690Z,94639.47
2023-08-03T11:22:03.459Z,94633.69
2023-08-03T11:23:05.174Z,94623.72
2023-08-03T11:24:07.011Z,94626.38
2023-08-03T11:25:08.998Z,94632.16
2023-08-03T11:26:11.662Z,94631.22
2023-08-03T11:27:14.012Z,94637.59
2023-08-03T11:28:22.532Z,94634.13
2023-08-03T11:29:24.485Z,94621.47
2023-08-03T11:30:27.187Z,94635.03
2023-08-03T11:31:28.946Z,94628.41
2023-08-03T11:32:31.720Z,94621.72
2023-08-03T11:33:36.207Z,94623.72
2023-08-03T11:34:38.035Z,94627.16
2023-08-03T11:35:41.616Z,94622.50
2023-08-03T11:36:51.875Z,94619.22
2023-08-03T11:37:53.665Z,94629.25
2023-08-03T11:38:55.431Z,94633.09
2023-08-03T11:40:00.341Z,94631.28
2023-08-03T11:41:02.505Z,94623.06
2023-08-03T11:42:04.986Z,94629.50
2023-08-03T11:43:12.054Z,94624.19
2023-08-03T11:44:13.797Z,94639.47
2023-08-03T11:45:15.371Z,94636.06
2023-08-03T11:46:22.473Z,94634.94
2023-08-03T11:47:24.791Z,94638.44
2023-08-03T11:48:27.258Z,94616.63
2023-08-03T11:49:31.545Z,94635.25
2023-08-03T11:50:33.393Z,94650.56
2023-08-03T11:51:37.368Z,94630.53
2023-08-03T11:52:39.214Z,94637.25
2023-08-03T11:53:43.506Z,94631.66
2023-08-03T11:54:46.364Z,94631.41
2023-08-03T11:55:49.207Z,94636.72
2023-08-03T11:56:51.812Z,94633.81
2023-08-03T11:58:14.167Z,94639.19
2023-08-03T11:59:15.984Z,94649.09
2023-08-03T12:00:22.240Z,94643.91
2023-08-03T12:01:29.279Z,94627.78
2023-08-03T12:02:42.645Z,94634.94
2023-08-03T12:03:44.556Z,94641.28
2023-08-03T12:04:53.921Z,94629.72
2023-08-03T12:06:07.115Z,94622.91
2023-08-03T12:08:20.520Z,94640.44
2023-08-03T12:09:30.493Z,94629.00
2023-08-03T12:10:32.282Z,94624.34
2023-08-03T12:12:41.964Z,94631.88
2023-08-03T12:13:46.516Z,94622.69
2023-08-03T12:14:48.287Z,94624.28
2023-08-03T12:15:49.945Z,94622.38
2023-08-03T12:16:58.191Z,94611.72
2023-08-03T12:18:00.203Z,94626.09
2023-08-03T12:19:03.350Z,94631.41
2023-08-03T12:20:06.526Z,94637.56
2023-08-03T12:21:10.843Z,94636.22
2023-08-03T12:22:13.462Z,94648.31
2023-08-03T12:23:15.227Z,94641.28
2023-08-03T12:24:16.825Z,94636.66
2023-08-03T12:25:18.715Z,94634.88
2023-08-03T12:26:22.935Z,94634.34
2023-08-03T12:27:24.731Z,94640.16
2023-08-03T12:28:28.188Z,94634.88
2023-08-03T12:29:30.505Z,94630.34
2023-08-03T12:30:34.565Z,94634.31
2023-08-03T12:31:38.762Z,94627.59
2023-08-03T12:32:40.639Z,94632.09
2023-08-03T12:33:42.413Z,94640.91
2023-08-03T12:34:44.104Z,94633.06
2023-08-03T12:35:45.693Z,94632.13
2023-08-03T12:36:49.730Z,94656.78
2023-08-03T12:37:57.398Z,94643.13
2023-08-03T12:38:59.618Z,94640.91
2023-08-03T12:40:01.397Z,94651.03
2023-08-03T12:41:05.263Z,94650.91
2023-08-03T12:42:09.679Z,94649.22
2023-08-03T12:43:11.423Z,94633.31
2023-08-03T12:44:13.321Z,94633.75
2023-08-03T12:45:15.058Z,94631.28
2023-08-03T12:46:17.858Z,94628.16
2023-08-03T12:47:22.471Z,94633.31
2023-08-03T12:48:24.371Z,94632.22
2023-08-03T12:49:26.156Z,94640.53
2023-08-03T12:50:28.041Z,94640.63
2023-08-03T12:51:30.212Z,94631.78
2023-08-03T12:52:34.383Z,94646.44
2023-08-03T12:53:39.121Z,94636.94
2023-08-03T12:54:42.905Z,94630.44
2023-08-03T12:55:44.617Z,94623.69
2023-08-03T12:56:47.743Z,94623.47
2023-08-03T12:57:50.649Z,94610.78
2023-08-03T12:58:52.440Z,94625.94
2023-08-03T12:59:54.096Z,94625.47
2023-08-03T13:01:01.250Z,94625.72
2023-08-03T13:02:03.136Z,94636.69
2023-08-03T13:03:05.373Z,94617.22